createdAt,value
2022-08-24T00:01:28.288Z,100.00
2022-08-24T00:03:59.840Z,100.00
2022-08-24T00:06:28.734Z,100.00
2022-08-24T00:08:58.332Z,100.00
2022-08-24T00:11:26.556Z,100.00
2022-08-24T00:13:54.944Z,100.00
2022-08-24T00:16:22.832Z,100.00
2022-08-24T00:18:50.448Z,100.00
2022-08-24T00:21:19.119Z,100.00
2022-08-24T00:23:49.656Z,100.00
2022-08-24T00:26:17.229Z,100.00
2022-08-24T00:28:48.620Z,100.00
2022-08-24T00:31:15.990Z,100.00
2022-08-24T00:33:43.650Z,100.00
2022-08-24T00:36:11.641Z,100.00
2022-08-24T00:38:39.677Z,100.00
2022-08-24T00:41:07.087Z,100.00
2022-08-24T00:43:35.300Z,100.00
2022-08-24T00:46:05.290Z,100.00
2022-08-24T00:48:34.469Z,100.00
2022-08-24T00:51:14.720Z,100.00
2022-08-24T00:53:56.003Z,100.00
2022-08-24T00:56:30.329Z,100.00
2022-08-24T00:59:01.163Z,100.00
2022-08-24T01:01:29.673Z,100.00
2022-08-24T01:03:57.798Z,100.00
2022-08-24T01:06:25.484Z,100.00
2022-08-24T01:08:56.258Z,100.00
2022-08-24T01:11:30.884Z,100.00
2022-08-24T01:14:04.193Z,100.00
2022-08-24T01:16:50.496Z,100.00
2022-08-24T01:19:39.983Z,100.00
2022-08-24T01:22:44.589Z,100.00
2022-08-24T01:25:12.395Z,100.00
2022-08-24T01:27:40.029Z,100.00
2022-08-24T01:30:11.861Z,100.00
2022-08-24T01:32:40.542Z,100.00
2022-08-24T01:35:09.275Z,100.00
2022-08-24T01:37:40.261Z,100.00
2022-08-24T01:40:11.591Z,100.00
2022-08-24T01:42:39.265Z,100.00
2022-08-24T01:45:07.336Z,100.00
2022-08-24T01:47:36.053Z,100.00
2022-08-24T01:50:04.981Z,100.00
2022-08-24T01:53:01.515Z,100.00
2022-08-24T01:55:22.666Z,100.00
2022-08-24T01:57:50.565Z,100.00
2022-08-24T02:00:18.439Z,100.00
2022-08-24T02:02:46.516Z,100.00
2022-08-24T02:05:15.549Z,100.00
2022-08-24T02:07:46.102Z,100.00
2022-08-24T02:10:15.095Z,100.00
2022-08-24T02:12:44.869Z,100.00
2022-08-24T02:15:12.995Z,100.00
2022-08-24T02:17:41.019Z,100.00
2022-08-24T02:20:09.231Z,100.00
2022-08-24T02:22:37.019Z,100.00
2022-08-24T02:25:06.086Z,100.00
2022-08-24T02:27:35.724Z,100.00
2022-08-24T02:30:03.769Z,100.00
2022-08-24T02:32:31.653Z,100.00
2022-08-24T02:34:59.145Z,100.00
2022-08-24T02:37:26.774Z,100.00
2022-08-24T02:39:55.159Z,100.00
2022-08-24T02:42:25.107Z,100.00
2022-08-24T02:44:53.810Z,100.00
2022-08-24T02:47:22.670Z,100.00
2022-08-24T02:50:07.931Z,100.00
2022-08-24T02:52:42.185Z,100.00
2022-08-24T02:55:13.350Z,100.00
2022-08-24T02:57:41.476Z,100.00
2022-08-24T03:00:12.289Z,100.00
2022-08-24T03:02:47.526Z,100.00
2022-08-24T03:05:15.564Z,100.00
2022-08-24T03:07:43.689Z,100.00
2022-08-24T03:10:12.030Z,100.00
2022-08-24T03:12:40.496Z,100.00
2022-08-24T03:15:10.762Z,100.00
2022-08-24T03:17:39.862Z,100.00
2022-08-24T03:20:12.032Z,100.00
2022-08-24T03:22:41.061Z,100.00
2022-08-24T03:25:09.170Z,100.00
2022-08-24T03:27:37.208Z,100.00
2022-08-24T03:30:05.749Z,100.00
2022-08-24T03:32:33.040Z,100.00
2022-08-24T03:35:02.495Z,100.00
2022-08-24T03:37:30.285Z,100.00
2022-08-24T03:39:57.934Z,100.00
2022-08-24T03:42:26.156Z,100.00
2022-08-24T03:44:53.575Z,100.00
2022-08-24T03:47:23.024Z,100.00
2022-08-24T03:49:51.439Z,100.00
2022-08-24T03:52:19.093Z,100.00
2022-08-24T03:54:49.537Z,100.00
2022-08-24T03:57:16.899Z,100.00
2022-08-24T03:59:46.674Z,100.00
2022-08-24T04:02:15.511Z,100.00
2022-08-24T04:04:43.177Z,100.00
2022-08-24T04:07:12.299Z,100.00
2022-08-24T04:09:40.080Z,100.00
2022-08-24T04:12:07.579Z,100.00
2022-08-24T04:14:35.488Z,100.00
2022-08-24T04:17:12.680Z,100.00
2022-08-24T04:19:58.024Z,100.00
2022-08-24T04:22:31.338Z,100.00
2022-08-24T04:24:58.914Z,100.00
2022-08-24T04:27:28.562Z,100.00
2022-08-24T04:29:57.035Z,100.00
2022-08-24T04:32:26.684Z,100.00
2022-08-24T04:34:56.521Z,100.00
2022-08-24T04:37:28.027Z,100.00
2022-08-24T04:39:57.953Z,100.00
2022-08-24T04:42:33.671Z,100.00
2022-08-24T04:45:01.724Z,100.00
2022-08-24T04:47:29.514Z,100.00
2022-08-24T04:49:56.904Z,100.00
2022-08-24T04:52:25.250Z,100.00
2022-08-24T04:54:53.049Z,100.00
2022-08-24T04:57:23.996Z,100.00
2022-08-24T04:59:56.739Z,100.00
2022-08-24T05:02:24.512Z,100.00
2022-08-24T05:04:57.333Z,100.00
2022-08-24T05:07:26.033Z,100.00
2022-08-24T05:09:53.437Z,100.00
2022-08-24T05:12:21.575Z,100.00
2022-08-24T05:14:58.899Z,100.00
2022-08-24T05:17:27.463Z,100.00
2022-08-24T05:19:54.923Z,100.00
2022-08-24T05:22:22.153Z,100.00
2022-08-24T05:24:54.408Z,100.00
2022-08-24T05:27:25.126Z,100.00
2022-08-24T05:29:56.564Z,100.00
2022-08-24T05:32:24.524Z,100.00
2022-08-24T05:34:53.694Z,100.00
2022-08-24T05:37:21.001Z,100.00
2022-08-24T05:40:11.436Z,100.00
2022-08-24T05:42:41.469Z,100.00
2022-08-24T05:45:10.920Z,100.00
2022-08-24T05:47:39.004Z,100.00
2022-08-24T05:50:19.480Z,100.00
2022-08-24T05:52:46.794Z,100.00
2022-08-24T05:55:14.441Z,100.00
2022-08-24T05:57:43.495Z,100.00
2022-08-24T06:00:16.763Z,100.00
2022-08-24T06:02:46.436Z,100.00
2022-08-24T06:05:14.884Z,100.00
2022-08-24T06:07:42.764Z,100.00
2022-08-24T06:10:35.250Z,100.00
2022-08-24T06:12:59.425Z,100.00
2022-08-24T06:15:27.313Z,100.00
2022-08-24T06:17:54.918Z,100.00
2022-08-24T06:20:22.751Z,100.00
2022-08-24T06:22:51.039Z,100.00
2022-08-24T06:25:37.995Z,100.00
2022-08-24T06:28:05.938Z,100.00
2022-08-24T06:30:35.007Z,100.00
2022-08-24T06:33:21.434Z,100.00
2022-08-24T06:35:52.240Z,100.00
2022-08-24T06:38:20.596Z,100.00
2022-08-24T06:40:51.384Z,100.00
2022-08-24T06:43:21.065Z,100.00
2022-08-24T06:45:55.287Z,100.00
2022-08-24T06:48:30.568Z,100.00
2022-08-24T06:50:59.574Z,100.00
2022-08-24T06:53:27.883Z,100.00
2022-08-24T06:55:59.400Z,100.00
2022-08-24T06:58:29.030Z,100.00
2022-08-24T07:00:57.714Z,100.00
2022-08-24T07:03:25.867Z,100.00
2022-08-24T07:06:05.238Z,100.00
2022-08-24T07:08:38.319Z,100.00
2022-08-24T07:11:06.618Z,100.00
2022-08-24T07:13:34.476Z,100.00
2022-08-24T07:16:02.502Z,100.00
2022-08-24T07:18:33.583Z,100.00
2022-08-24T07:21:04.996Z,100.00
2022-08-24T07:23:42.086Z,100.00
2022-08-24T07:26:18.836Z,100.00
2022-08-24T07:29:05.063Z,100.00
2022-08-24T07:31:42.919Z,100.00
2022-08-24T07:34:31.312Z,100.00
2022-08-24T07:37:00.638Z,100.00
2022-08-24T07:39:29.023Z,100.00
2022-08-24T07:42:16.076Z,100.00
2022-08-24T07:44:45.952Z,100.00
2022-08-24T07:47:38.851Z,100.00
2022-08-24T07:50:03.915Z,100.00
2022-08-24T07:52:32.443Z,100.00
2022-08-24T07:54:59.727Z,100.00
2022-08-24T07:57:29.465Z,100.00
2022-08-24T07:59:59.535Z,100.00
2022-08-24T08:02:29.976Z,100.00
2022-08-24T08:05:02.725Z,100.00
2022-08-24T08:07:31.759Z,100.00
2022-08-24T08:10:02.092Z,100.00
2022-08-24T08:12:31.164Z,100.00
2022-08-24T08:14:59.029Z,100.00
2022-08-24T08:17:27.207Z,100.00
2022-08-24T08:19:55.162Z,100.00
2022-08-24T08:22:42.690Z,100.00
2022-08-24T08:25:31.874Z,100.00
2022-08-24T08:28:08.033Z,100.00
2022-08-24T08:30:47.170Z,100.00
2022-08-24T08:33:15.447Z,100.00
2022-08-24T08:35:44.460Z,100.00
2022-08-24T08:38:12.766Z,100.00
2022-08-24T08:40:46.404Z,100.00
2022-08-24T08:43:40.007Z,100.00
2022-08-24T08:46:16.981Z,100.00
2022-08-24T08:49:07.876Z,100.00
2022-08-24T08:51:57.114Z,100.00
2022-08-24T08:54:31.451Z,100.00
2022-08-24T08:57:20.655Z,97.96
2022-08-24T08:59:58.314Z,97.74
2022-08-24T09:02:48.036Z,99.78
2022-08-24T09:05:47.474Z,100.00
2022-08-24T09:08:41.833Z,100.00
2022-08-24T09:11:41.772Z,99.60
2022-08-24T09:14:12.256Z,97.45
2022-08-24T09:17:02.579Z,97.61
2022-08-24T09:19:52.834Z,99.05
2022-08-24T09:22:21.266Z,97.38
2022-08-24T09:24:55.061Z,97.42
2022-08-24T09:28:01.693Z,97.35
2022-08-24T09:30:39.929Z,99.11
2022-08-24T09:33:18.409Z,99.54
2022-08-24T09:36:05.983Z,98.16
2022-08-24T09:38:52.399Z,96.43
2022-08-24T09:41:41.523Z,97.72
2022-08-24T09:44:34.041Z,94.64
2022-08-24T09:47:28.185Z,95.72
2022-08-24T09:50:14.077Z,95.39
2022-08-24T09:52:52.281Z,95.38
2022-08-24T09:55:36.487Z,95.60
2022-08-24T09:58:41.269Z,96.20
2022-08-24T10:01:28.322Z,95.83
2022-08-24T10:04:24.257Z,95.66
2022-08-24T10:07:10.447Z,96.97
2022-08-24T10:09:56.785Z,97.35
2022-08-24T10:12:47.343Z,97.45
2022-08-24T10:15:21.534Z,93.03
2022-08-24T10:18:17.934Z,93.33
2022-08-24T10:21:25.656Z,92.31
2022-08-24T10:24:13.462Z,93.88
2022-08-24T10:26:51.144Z,95.50
2022-08-24T10:29:58.293Z,92.72
2022-08-24T10:32:47.801Z,93.73
2022-08-24T10:35:22.714Z,90.40
2022-08-24T10:38:46.275Z,90.89
2022-08-24T10:41:51.824Z,89.91
2022-08-24T10:44:43.827Z,85.72
2022-08-24T10:47:29.347Z,90.84
2022-08-24T10:50:02.796Z,85.41
2022-08-24T10:52:48.414Z,84.49
2022-08-24T10:55:42.506Z,81.08
2022-08-24T10:58:31.804Z,82.55
2022-08-24T11:01:27.621Z,85.75
2022-08-24T11:04:03.168Z,86.17
2022-08-24T11:06:37.100Z,88.48
2022-08-24T11:09:19.278Z,88.88
2022-08-24T11:11:49.981Z,86.22
2022-08-24T11:14:27.653Z,88.39
2022-08-24T11:17:15.239Z,88.89
2022-08-24T11:19:43.778Z,90.18
2022-08-24T11:22:31.724Z,89.76
2022-08-24T11:25:05.188Z,88.46
2022-08-24T11:27:38.504Z,88.02
2022-08-24T11:30:20.165Z,86.02
2022-08-24T11:32:58.655Z,85.18
2022-08-24T11:35:31.953Z,85.24
2022-08-24T11:38:32.442Z,86.61
2022-08-24T11:41:07.107Z,83.82
2022-08-24T11:43:41.258Z,85.51
2022-08-24T11:46:30.276Z,84.93
2022-08-24T11:49:32.752Z,82.53
2022-08-24T11:52:11.205Z,81.75
2022-08-24T11:54:51.199Z,83.13
2022-08-24T11:57:23.091Z,81.71
2022-08-24T12:00:13.814Z,83.40
2022-08-24T12:03:04.523Z,81.41
2022-08-24T12:06:17.268Z,81.27
2022-08-24T12:08:55.981Z,78.40
2022-08-24T12:11:31.601Z,80.82
2022-08-24T12:14:20.455Z,79.62
2022-08-24T12:17:01.278Z,79.49
2022-08-24T12:19:35.756Z,81.96
2022-08-24T12:22:06.290Z,79.64
2022-08-24T12:24:40.237Z,79.42
2022-08-24T12:27:21.648Z,79.16
2022-08-24T12:29:54.612Z,75.39
2022-08-24T12:32:25.938Z,76.47
2022-08-24T12:35:06.164Z,76.05
2022-08-24T12:37:47.213Z,79.50
2022-08-24T12:40:32.539Z,80.12
2022-08-24T12:43:45.905Z,80.33
2022-08-24T12:46:17.490Z,79.44
2022-08-24T12:49:12.871Z,78.68
2022-08-24T12:51:59.062Z,80.52
2022-08-24T12:54:29.119Z,79.11
2022-08-24T12:57:16.237Z,80.25
2022-08-24T12:59:47.900Z,80.41
2022-08-24T13:02:15.788Z,81.43
2022-08-24T13:04:57.069Z,81.11
2022-08-24T13:07:24.832Z,81.92
2022-08-24T13:09:58.318Z,82.67
2022-08-24T13:12:45.243Z,82.05
2022-08-24T13:15:28.363Z,80.60
2022-08-24T13:18:09.553Z,81.67
2022-08-24T13:20:37.223Z,80.15
2022-08-24T13:23:07.573Z,80.70
2022-08-24T13:25:58.791Z,79.82
2022-08-24T13:28:32.142Z,80.27
2022-08-24T13:31:06.797Z,80.12
2022-08-24T13:33:50.917Z,77.97
2022-08-24T13:36:36.995Z,77.94
2022-08-24T13:39:17.811Z,75.57
2022-08-24T13:41:49.599Z,76.06
2022-08-24T13:44:37.533Z,76.22
2022-08-24T13:47:28.326Z,77.17
2022-08-24T13:50:28.089Z,77.80
2022-08-24T13:53:34.085Z,75.13
2022-08-24T13:56:32.418Z,72.90
2022-08-24T13:59:16.733Z,72.49
2022-08-24T14:02:05.117Z,73.33
2022-08-24T14:04:47.615Z,74.62
2022-08-24T14:07:15.667Z,72.50
2022-08-24T14:10:14.460Z,69.39
2022-08-24T14:13:05.365Z,69.37
2022-08-24T14:16:14.105Z,69.51
2022-08-24T14:19:04.140Z,68.58
2022-08-24T14:21:47.597Z,65.58
2022-08-24T14:24:45.722Z,65.62
2022-08-24T14:27:35.440Z,64.58
2022-08-24T14:30:29.585Z,64.70
2022-08-24T14:33:00.199Z,64.69
2022-08-24T14:36:10.232Z,64.26
2022-08-24T14:38:54.644Z,62.64
2022-08-24T14:41:31.429Z,62.45
2022-08-24T14:44:36.878Z,61.62
2022-08-24T14:47:17.210Z,60.25
2022-08-24T14:49:45.243Z,59.77
2022-08-24T14:52:50.596Z,60.45
2022-08-24T14:55:56.927Z,61.83
2022-08-24T14:58:47.239Z,61.21
2022-08-24T15:01:56.702Z,62.76
2022-08-24T15:04:37.684Z,60.73
2022-08-24T15:07:27.274Z,61.97
2022-08-24T15:09:56.308Z,61.85
2022-08-24T15:12:37.365Z,63.16
2022-08-24T15:15:27.371Z,61.35
2022-08-24T15:17:58.391Z,62.48
2022-08-24T15:20:37.976Z,61.39
2022-08-24T15:23:11.853Z,63.43
2022-08-24T15:25:48.069Z,61.57
2022-08-24T15:28:25.891Z,61.93
2022-08-24T15:31:11.326Z,62.47
2022-08-24T15:33:57.909Z,60.91
2022-08-24T15:36:26.516Z,63.60
2022-08-24T15:38:54.618Z,63.54
2022-08-24T15:41:26.169Z,62.46
2022-08-24T15:43:57.156Z,62.90
2022-08-24T15:46:37.148Z,63.32
2022-08-24T15:49:28.987Z,64.95
2022-08-24T15:52:34.224Z,65.95
2022-08-24T15:55:04.509Z,66.70
2022-08-24T15:57:37.177Z,66.73
2022-08-24T16:00:15.309Z,70.38
2022-08-24T16:02:43.800Z,69.44
2022-08-24T16:05:24.470Z,70.80
2022-08-24T16:08:04.560Z,69.80
2022-08-24T16:10:41.472Z,68.95
2022-08-24T16:13:31.483Z,69.32
2022-08-24T16:16:11.156Z,69.08
2022-08-24T16:18:46.557Z,68.11
2022-08-24T16:21:33.962Z,70.08
2022-08-24T16:24:05.855Z,70.99
2022-08-24T16:26:53.370Z,70.63
2022-08-24T16:29:39.704Z,73.54
2022-08-24T16:32:21.538Z,72.98
2022-08-24T16:35:09.845Z,73.56
2022-08-24T16:37:39.467Z,77.51
2022-08-24T16:40:08.665Z,80.25
2022-08-24T16:42:37.005Z,80.27
2022-08-24T16:45:06.509Z,81.89
2022-08-24T16:47:34.107Z,83.89
2022-08-24T16:50:01.569Z,84.44
2022-08-24T16:52:29.691Z,81.18
2022-08-24T16:54:57.911Z,79.03
2022-08-24T16:57:31.605Z,80.06
2022-08-24T16:59:59.887Z,81.96
2022-08-24T17:02:27.399Z,82.38
2022-08-24T17:04:55.064Z,83.72
2022-08-24T17:07:25.615Z,86.35
2022-08-24T17:09:53.854Z,86.88
2022-08-24T17:12:21.557Z,88.52
2022-08-24T17:14:49.387Z,89.28
2022-08-24T17:17:21.353Z,88.90
2022-08-24T17:19:50.527Z,86.89
2022-08-24T17:22:18.443Z,87.99
2022-08-24T17:24:46.604Z,90.03
2022-08-24T17:27:14.938Z,90.13
2022-08-24T17:29:44.721Z,89.53
2022-08-24T17:32:13.306Z,90.45
2022-08-24T17:34:41.063Z,92.32
2022-08-24T17:37:09.831Z,92.69
2022-08-24T17:39:37.299Z,93.73
2022-08-24T17:42:13.745Z,93.40
2022-08-24T17:44:53.271Z,95.08
2022-08-24T17:47:20.991Z,96.64
2022-08-24T17:49:48.529Z,99.65
2022-08-24T17:52:16.318Z,100.00
2022-08-24T17:54:43.792Z,100.00
2022-08-24T17:57:12.802Z,100.00
2022-08-24T17:59:41.007Z,100.00
2022-08-24T18:02:13.118Z,100.00
2022-08-24T18:04:41.514Z,100.00
2022-08-24T18:07:12.608Z,100.00
2022-08-24T18:09:48.689Z,100.00
2022-08-24T18:12:18.543Z,100.00
2022-08-24T18:14:46.373Z,100.00
2022-08-24T18:17:21.090Z,100.00
2022-08-24T18:19:51.032Z,100.00
2022-08-24T18:22:18.495Z,100.00
2022-08-24T18:24:45.905Z,100.00
2022-08-24T18:27:22.426Z,100.00
2022-08-24T18:29:54.691Z,100.00
2022-08-24T18:32:22.611Z,100.00
2022-08-24T18:34:56.026Z,100.00
2022-08-24T18:37:24.531Z,100.00
2022-08-24T18:39:52.182Z,100.00
2022-08-24T18:42:19.668Z,100.00
2022-08-24T18:44:47.408Z,100.00
2022-08-24T18:47:15.779Z,100.00
2022-08-24T18:49:43.204Z,100.00
2022-08-24T18:52:13.777Z,100.00
2022-08-24T18:54:44.886Z,100.00
2022-08-24T18:57:12.709Z,100.00
2022-08-24T18:59:41.310Z,100.00
2022-08-24T19:02:31.429Z,100.00
2022-08-24T19:05:03.420Z,100.00
2022-08-24T19:07:32.758Z,100.00
2022-08-24T19:10:00.937Z,100.00
2022-08-24T19:12:31.498Z,100.00
2022-08-24T19:14:59.752Z,100.00
2022-08-24T19:17:29.038Z,100.00
2022-08-24T19:19:56.498Z,100.00
2022-08-24T19:22:25.303Z,100.00
2022-08-24T19:24:53.950Z,100.00
2022-08-24T19:27:21.649Z,100.00
2022-08-24T19:29:56.960Z,100.00
2022-08-24T19:32:27.201Z,100.00
2022-08-24T19:34:55.523Z,100.00
2022-08-24T19:37:23.552Z,100.00
2022-08-24T19:39:51.367Z,100.00
2022-08-24T19:42:19.254Z,100.00
2022-08-24T19:45:04.983Z,100.00
2022-08-24T19:47:34.765Z,100.00
2022-08-24T19:50:03.073Z,100.00
2022-08-24T19:52:32.742Z,100.00
2022-08-24T19:55:00.899Z,100.00
2022-08-24T19:57:34.051Z,100.00
2022-08-24T20:00:19.778Z,100.00
2022-08-24T20:02:48.872Z,100.00
2022-08-24T20:05:18.052Z,100.00
2022-08-24T20:07:46.647Z,100.00
2022-08-24T20:10:15.717Z,100.00
2022-08-24T20:12:43.726Z,100.00
2022-08-24T20:15:12.268Z,100.00
2022-08-24T20:17:39.783Z,100.00
2022-08-24T20:20:09.490Z,100.00
2022-08-24T20:22:37.499Z,100.00
2022-08-24T20:25:06.262Z,100.00
2022-08-24T20:27:34.184Z,100.00
2022-08-24T20:30:01.990Z,100.00
2022-08-24T20:32:29.789Z,100.00
2022-08-24T20:34:57.538Z,100.00
2022-08-24T20:37:27.755Z,100.00
2022-08-24T20:39:57.336Z,100.00
2022-08-24T20:42:28.028Z,100.00
2022-08-24T20:44:55.819Z,100.00
2022-08-24T20:47:23.745Z,100.00
2022-08-24T20:49:51.948Z,100.00
2022-08-24T20:52:19.381Z,100.00
2022-08-24T20:54:47.096Z,100.00
2022-08-24T20:57:18.334Z,100.00
2022-08-24T20:59:46.462Z,100.00
2022-08-24T21:02:14.262Z,100.00
2022-08-24T21:04:42.182Z,100.00
2022-08-24T21:07:11.868Z,100.00
2022-08-24T21:09:39.628Z,100.00
2022-08-24T21:12:08.346Z,100.00
2022-08-24T21:14:35.922Z,100.00
2022-08-24T21:17:05.808Z,100.00
2022-08-24T21:19:34.403Z,100.00
2022-08-24T21:22:02.002Z,100.00
2022-08-24T21:24:29.722Z,100.00
2022-08-24T21:26:58.742Z,100.00
2022-08-24T21:29:29.390Z,100.00
2022-08-24T21:32:15.485Z,100.00
2022-08-24T21:34:43.092Z,100.00
2022-08-24T21:37:13.124Z,100.00
2022-08-24T21:39:41.083Z,100.00
2022-08-24T21:42:09.815Z,100.00
2022-08-24T21:44:37.175Z,100.00
2022-08-24T21:47:06.733Z,100.00
2022-08-24T21:49:34.822Z,100.00
2022-08-24T21:52:02.527Z,100.00
2022-08-24T21:54:30.208Z,100.00
2022-08-24T21:56:58.474Z,100.00
2022-08-24T21:59:26.210Z,100.00
2022-08-24T22:01:53.760Z,100.00
2022-08-24T22:04:21.453Z,100.00
2022-08-24T22:06:50.123Z,100.00
2022-08-24T22:09:17.881Z,100.00
2022-08-24T22:11:45.824Z,100.00
2022-08-24T22:14:15.387Z,100.00
2022-08-24T22:16:45.065Z,100.00
2022-08-24T22:19:14.058Z,100.00
2022-08-24T22:21:47.874Z,100.00
2022-08-24T22:24:16.764Z,100.00
2022-08-24T22:26:44.288Z,100.00
2022-08-24T22:29:11.832Z,100.00
2022-08-24T22:31:42.210Z,100.00
2022-08-24T22:34:13.106Z,100.00
2022-08-24T22:36:47.419Z,100.00
2022-08-24T22:39:14.970Z,100.00
2022-08-24T22:41:42.481Z,100.00
2022-08-24T22:44:22.317Z,100.00
2022-08-24T22:46:55.784Z,100.00
2022-08-24T22:49:26.736Z,100.00
2022-08-24T22:51:54.342Z,100.00
2022-08-24T22:54:22.396Z,100.00
2022-08-24T22:56:52.654Z,100.00
2022-08-24T22:59:28.959Z,100.00
2022-08-24T23:01:58.047Z,100.00
2022-08-24T23:04:29.314Z,100.00
2022-08-24T23:06:57.109Z,100.00
2022-08-24T23:09:25.390Z,100.00
2022-08-24T23:11:52.809Z,100.00
2022-08-24T23:14:21.356Z,100.00
2022-08-24T23:16:50.069Z,100.00
2022-08-24T23:19:38.674Z,100.00
2022-08-24T23:22:08.319Z,100.00
2022-08-24T23:24:36.521Z,100.00
2022-08-24T23:27:05.177Z,100.00
2022-08-24T23:29:33.377Z,100.00
2022-08-24T23:32:01.756Z,100.00
2022-08-24T23:34:31.835Z,100.00
2022-08-24T23:36:59.856Z,100.00
2022-08-24T23:39:28.045Z,100.00
2022-08-24T23:41:55.785Z,100.00
2022-08-24T23:44:27.199Z,100.00
2022-08-24T23:46:55.497Z,100.00
2022-08-24T23:49:23.375Z,100.00
2022-08-24T23:51:52.534Z,100.00
2022-08-24T23:54:22.093Z,100.00
2022-08-24T23:56:50.623Z,100.00
2022-08-24T23:59:27.563Z,100.00
